Terminal Aerodrome Forecast
Issued by NWS

Home | Current Version | Previous Version | Text Only | Print | Product List | Glossary On
Versions: 1 2 3 4 5 6 7 8 9 10 11 12 13 14 15 16 17 18 19 20 21 22 23 24 25 26 27 28
000
FTUS42 KCAE 220300 AAA
TAFOGB
TAF AMD
KOGB 220316Z 2203/2224 06005KT P6SM VCSH SCT015 BKN025 OVC040
      TEMPO 2203/2205 3SM RA BR SCT006 BKN015 OVC025
     FM220500 VRB03KT 5SM -RA BR BKN006 OVC012
     FM221300 04006KT 4SM -DZ BR BKN005 OVC010=

USA.gov is the U.S. government's official web portal to all federal, state and local government web resources and services.